Time;durP1;ratioP1;P1;durP2;ratioP2;P2;SDS_P1;SDS_P2;PMS_P1;PMS_P2;Temp;Humidity;BMP_temperature;BMP_pressure;BME280_temperature;BME280_humidity;BME280_pressure;Samples;Min_cycle;Max_cycle;Signal;HPM_P1;HPM_P2
2022/12/31 00:01:48;;;;;;;2.50;1.53;;;9.70;99.90;;;;;;5050566;28;20741;-59
2022/12/31 00:04:13;;;;;;;2.97;1.80;;;9.70;99.90;;;;;;5042665;28;20826;-56
2022/12/31 00:06:39;;;;;;;6.53;2.13;;;9.70;99.90;;;;;;5045756;28;20437;-58
2022/12/31 00:09:06;;;;;;;1.53;1.43;;;9.70;99.90;;;;;;5048734;28;20861;-57
2022/12/31 00:11:32;;;;;;;1.97;1.80;;;9.80;99.90;;;;;;5048166;28;20896;-57
2022/12/31 00:13:58;;;;;;;1.70;1.50;;;9.80;99.90;;;;;;5047393;28;20446;-57
2022/12/31 00:16:30;;;;;;;7.50;2.10;;;9.80;99.90;;;;;;5039570;28;20513;-60
2022/12/31 00:19:00;;;;;;;1.50;1.40;;;9.80;99.90;;;;;;5041991;28;20535;-58
2022/12/31 00:21:27;;;;;;;1.50;1.40;;;9.80;99.90;;;;;;5048475;28;20488;-57
2022/12/31 00:23:54;;;;;;;2.20;1.60;;;9.80;99.90;;;;;;5044450;28;20422;-58
2022/12/31 00:26:25;;;;;;;3.90;1.70;;;9.80;99.90;;;;;;5041851;28;20453;-56
2022/12/31 00:28:53;;;;;;;4.13;1.87;;;9.80;99.90;;;;;;5046500;28;20926;-59
2022/12/31 00:31:24;;;;;;;6.03;1.80;;;9.80;99.90;;;;;;5048291;28;20445;-56
2022/12/31 00:33:50;;;;;;;2.10;1.27;;;9.80;99.90;;;;;;5043774;28;21009;-56
2022/12/31 00:36:17;;;;;;;2.67;1.77;;;9.80;99.90;;;;;;5045345;28;20450;-59
2022/12/31 00:38:45;;;;;;;3.10;2.53;;;9.80;99.90;;;;;;5045095;28;20433;-59
2022/12/31 00:41:12;;;;;;;7.63;5.00;;;9.80;99.90;;;;;;5042213;28;20758;-58
2022/12/31 00:43:37;;;;;;;6.93;5.37;;;9.80;99.90;;;;;;5046923;28;20438;-60
2022/12/31 00:46:04;;;;;;;3.87;2.70;;;9.80;99.90;;;;;;5039166;28;20468;-56
2022/12/31 00:48:30;;;;;;;2.40;2.20;;;9.80;99.90;;;;;;5050084;28;20663;-58
2022/12/31 00:50:56;;;;;;;2.77;1.90;;;9.80;99.90;;;;;;5049791;28;20433;-57
2022/12/31 00:53:23;;;;;;;2.20;2.00;;;9.80;99.90;;;;;;5044737;28;20274;-58
2022/12/31 00:55:48;;;;;;;3.63;1.90;;;9.70;99.90;;;;;;5040782;28;20475;-56
2022/12/31 00:58:14;;;;;;;1.80;1.70;;;9.70;99.90;;;;;;5047990;28;20521;-58
2022/12/31 01:00:40;;;;;;;1.83;1.73;;;9.70;99.90;;;;;;5041075;28;20207;-58
2022/12/31 01:03:07;;;;;;;2.10;1.90;;;9.70;99.90;;;;;;5027046;28;20601;-59
2022/12/31 01:05:34;;;;;;;1.80;1.70;;;9.70;99.90;;;;;;5043041;28;20435;-59
2022/12/31 01:08:00;;;;;;;4.83;2.13;;;9.60;99.90;;;;;;5048644;28;20417;-58
2022/12/31 01:13:10;;;;;;;4.33;1.80;;;9.60;99.90;;;;;;5033718;28;20592;-58
2022/12/31 01:15:37;;;;;;;2.00;1.87;;;9.60;99.90;;;;;;5042491;28;20466;-58
2022/12/31 01:18:07;;;;;;;1.97;1.87;;;9.50;99.90;;;;;;5045969;28;20236;-57
2022/12/31 01:20:41;;;;;;;2.10;1.90;;;9.50;99.90;;;;;;5042575;28;20880;-56
2022/12/31 01:23:09;;;;;;;4.17;2.60;;;9.50;99.90;;;;;;5046407;28;20425;-60
2022/12/31 01:25:36;;;;;;;1.97;1.87;;;9.50;99.90;;;;;;5044273;28;20445;-58
2022/12/31 01:28:03;;;;;;;1.80;1.70;;;9.50;99.90;;;;;;5048307;28;20425;-57
2022/12/31 01:30:29;;;;;;;2.30;2.10;;;9.40;99.90;;;;;;5046571;28;20918;-57
2022/12/31 01:32:54;;;;;;;2.17;2.07;;;9.40;99.90;;;;;;5045849;28;20433;-58
2022/12/31 01:35:20;;;;;;;1.80;1.70;;;9.40;99.90;;;;;;5041461;28;20194;-58
2022/12/31 01:37:46;;;;;;;2.10;1.90;;;9.40;99.90;;;;;;5047512;28;20274;-58
2022/12/31 01:40:12;;;;;;;1.90;1.80;;;9.40;99.90;;;;;;5045109;28;20196;-57
2022/12/31 01:42:37;;;;;;;2.03;1.90;;;9.40;99.90;;;;;;5046771;28;20209;-57
2022/12/31 01:45:08;;;;;;;9.90;5.20;;;9.40;99.90;;;;;;5040897;28;20244;-55
2022/12/31 01:47:40;;;;;;;17.13;9.87;;;9.40;99.90;;;;;;5047774;28;20851;-57
2022/12/31 01:50:11;;;;;;;4.43;3.10;;;9.40;99.90;;;;;;5037620;28;21760;-58
2022/12/31 01:52:41;;;;;;;4.20;2.50;;;9.30;99.90;;;;;;5045297;28;20434;-57
2022/12/31 01:55:24;;;;;;;2.07;1.90;;;9.40;99.90;;;;;;5042674;28;20452;-58
2022/12/31 01:57:56;;;;;;;2.90;2.10;;;9.40;99.90;;;;;;5044190;28;20918;-54
2022/12/31 02:00:22;;;;;;;2.03;1.90;;;9.40;99.90;;;;;;5044614;28;20888;-57
2022/12/31 02:02:47;;;;;;;2.40;1.73;;;9.40;99.90;;;;;;5041985;28;20425;-58
2022/12/31 02:05:38;;;;;;;2.90;2.10;;;9.40;99.90;;;;;;5047085;28;20183;-59
2022/12/31 02:08:05;;;;;;;7.80;2.53;;;9.40;99.90;;;;;;5040019;28;20179;-57
2022/12/31 02:10:30;;;;;;;6.70;3.07;;;9.40;99.90;;;;;;5025333;28;20565;-58
2022/12/31 02:12:56;;;;;;;6.30;3.30;;;9.40;99.90;;;;;;5044475;28;20437;-58
2022/12/31 02:15:36;;;;;;;6.33;2.60;;;9.40;99.90;;;;;;5045814;28;20206;-58
2022/12/31 02:18:07;;;;;;;7.43;3.17;;;9.40;99.90;;;;;;5038923;28;20429;-56
2022/12/31 02:20:41;;;;;;;7.63;2.70;;;9.40;99.90;;;;;;5029214;28;20454;-59
2022/12/31 02:23:34;;;;;;;10.47;3.70;;;9.40;99.90;;;;;;5040729;28;20416;-58
2022/12/31 02:26:18;;;;;;;8.13;2.90;;;9.40;99.90;;;;;;5041964;28;20437;-59
2022/12/31 02:29:14;;;;;;;5.23;2.40;;;9.50;99.90;;;;;;5047046;28;20413;-58
2022/12/31 02:31:56;;;;;;;5.20;2.60;;;9.50;99.90;;;;;;5043925;28;20449;-57
2022/12/31 02:34:35;;;;;;;6.67;1.97;;;9.50;99.90;;;;;;5046699;28;20452;-59
2022/12/31 02:37:05;;;;;;;2.50;2.20;;;9.50;99.90;;;;;;5045456;28;20527;-56
2022/12/31 02:39:32;;;;;;;3.03;1.80;;;9.50;99.90;;;;;;5046263;28;20426;-60
2022/12/31 02:41:59;;;;;;;2.90;1.80;;;9.50;99.90;;;;;;5044034;28;20429;-57
2022/12/31 02:44:32;;;;;;;2.50;1.90;;;9.50;99.90;;;;;;5037215;28;20798;-60
2022/12/31 02:47:07;;;;;;;2.43;1.80;;;9.50;99.90;;;;;;5042862;28;20624;-58
2022/12/31 02:50:05;;;;;;;1.70;1.50;;;9.50;99.90;;;;;;5037242;28;20948;-58
2022/12/31 02:52:56;;;;;;;2.53;1.70;;;9.50;99.90;;;;;;5019179;28;20422;-58
2022/12/31 02:55:44;;;;;;;1.53;1.43;;;9.50;99.90;;;;;;5023725;28;20433;-59
2022/12/31 03:02:12;;;;;;;1.60;1.50;;;9.50;99.90;;;;;;5033029;28;20453;-58
2022/12/31 03:04:30;;;;;;;1.40;1.30;;;9.60;99.90;;;;;;5043475;28;21053;-58
2022/12/31 03:06:38;;;;;;;1.77;1.43;;;9.60;99.90;;;;;;5041292;28;20463;-60
2022/12/31 03:09:13;;;;;;;3.23;1.83;;;9.60;99.90;;;;;;5042112;28;20440;-57
2022/12/31 03:14:23;;;;;;;1.70;1.60;;;9.60;99.90;;;;;;5035114;28;20524;-57
2022/12/31 03:16:49;;;;;;;1.50;1.40;;;9.60;99.90;;;;;;5041029;28;20458;-59
2022/12/31 03:27:27;;;;;;;1.27;1.23;;;9.50;99.90;;;;;;5039616;28;20575;-58
2022/12/31 03:29:52;;;;;;;1.77;1.67;;;9.50;99.90;;;;;;5027818;28;20442;-60
2022/12/31 03:32:18;;;;;;;2.00;1.37;;;9.50;99.90;;;;;;5045450;28;20191;-57
2022/12/31 03:34:43;;;;;;;1.50;1.40;;;9.50;99.90;;;;;;5043792;28;20179;-59
2022/12/31 03:37:09;;;;;;;1.60;1.50;;;9.50;99.90;;;;;;5047548;28;20199;-59
2022/12/31 03:39:34;;;;;;;1.57;1.47;;;9.50;99.90;;;;;;5043647;28;20236;-60
2022/12/31 03:42:01;;;;;;;1.70;1.60;;;9.60;99.90;;;;;;5047233;28;20249;-57
2022/12/31 03:44:27;;;;;;;8.03;1.93;;;9.60;99.90;;;;;;5047221;28;20480;-57
2022/12/31 03:46:52;;;;;;;1.60;1.50;;;9.60;99.90;;;;;;5046978;28;20186;-59
2022/12/31 03:49:18;;;;;;;1.40;1.30;;;9.60;99.90;;;;;;5043406;28;20602;-58
2022/12/31 03:51:43;;;;;;;1.40;1.30;;;9.70;99.90;;;;;;5048266;28;20199;-59
2022/12/31 03:54:09;;;;;;;3.40;1.53;;;9.70;99.90;;;;;;5041487;28;20183;-58
2022/12/31 03:56:34;;;;;;;2.40;1.37;;;9.70;99.90;;;;;;5047146;28;20610;-57
2022/12/31 03:59:00;;;;;;;1.60;1.50;;;9.70;99.90;;;;;;5034635;28;20259;-58
2022/12/31 04:01:25;;;;;;;2.20;1.50;;;9.70;99.90;;;;;;5044021;28;20672;-59
2022/12/31 04:03:51;;;;;;;1.50;1.40;;;9.80;99.90;;;;;;5050529;28;20205;-58
2022/12/31 04:06:17;;;;;;;1.93;1.33;;;9.80;99.90;;;;;;5043663;28;20329;-58
2022/12/31 04:08:42;;;;;;;1.90;1.60;;;9.80;99.90;;;;;;5044781;28;20171;-59
2022/12/31 04:11:08;;;;;;;1.50;1.40;;;9.80;99.90;;;;;;5062608;22;20448;-60
2022/12/31 04:13:33;;;;;;;2.33;1.50;;;9.90;99.90;;;;;;5067968;28;20182;-60
2022/12/31 04:15:59;;;;;;;2.50;1.40;;;9.90;99.90;;;;;;5065993;28;20187;-59
2022/12/31 04:18:25;;;;;;;1.40;1.30;;;9.90;99.90;;;;;;5059799;28;20179;-60
2022/12/31 04:20:50;;;;;;;1.27;1.17;;;9.90;99.90;;;;;;5067621;28;20269;-60
2022/12/31 04:23:16;;;;;;;1.40;1.30;;;9.90;99.90;;;;;;5060435;28;20642;-59
2022/12/31 04:25:41;;;;;;;1.20;1.20;;;9.90;99.90;;;;;;5063276;28;20260;-59
2022/12/31 04:28:07;;;;;;;3.80;1.77;;;9.90;99.90;;;;;;5066262;28;20167;-59
2022/12/31 04:30:33;;;;;;;4.17;1.40;;;10.00;99.90;;;;;;5062139;28;20537;-59
2022/12/31 04:32:58;;;;;;;1.63;1.30;;;9.90;99.90;;;;;;5063563;28;20203;-59
2022/12/31 04:35:24;;;;;;;1.83;1.40;;;10.00;99.90;;;;;;5059029;28;20185;-61
2022/12/31 04:37:49;;;;;;;3.10;1.40;;;10.00;99.90;;;;;;5066624;28;20778;-60
2022/12/31 04:40:15;;;;;;;1.30;1.20;;;10.10;99.90;;;;;;5055846;28;20171;-62
2022/12/31 04:42:40;;;;;;;1.60;1.23;;;10.10;99.90;;;;;;5066669;28;20195;-59
2022/12/31 04:45:07;;;;;;;2.30;1.30;;;10.10;99.90;;;;;;5061291;28;20566;-59
2022/12/31 04:47:32;;;;;;;1.40;1.30;;;10.10;99.90;;;;;;5066833;28;20206;-60
2022/12/31 04:49:58;;;;;;;1.40;1.30;;;10.10;99.90;;;;;;5061728;28;20517;-60
2022/12/31 04:52:23;;;;;;;1.40;1.30;;;10.10;99.90;;;;;;5068541;28;20198;-59
2022/12/31 04:54:49;;;;;;;2.13;1.87;;;10.10;99.90;;;;;;5060449;28;20174;-59
2022/12/31 04:57:15;;;;;;;2.30;1.30;;;10.10;99.90;;;;;;5064000;28;20179;-62
2022/12/31 04:59:40;;;;;;;1.50;1.30;;;10.10;99.90;;;;;;5061946;28;20272;-59
2022/12/31 05:02:06;;;;;;;1.70;1.33;;;10.10;99.90;;;;;;5064134;28;20198;-59
2022/12/31 05:04:31;;;;;;;1.80;1.40;;;10.10;99.90;;;;;;5059055;28;20266;-59
2022/12/31 05:06:57;;;;;;;1.60;1.50;;;10.00;99.90;;;;;;5063336;28;20248;-59
2022/12/31 05:09:26;;;;;;;3.10;1.73;;;10.00;99.90;;;;;;5058574;28;20604;-58
2022/12/31 05:11:51;;;;;;;3.53;1.60;;;10.00;99.90;;;;;;5064619;28;20995;-59
2022/12/31 05:14:17;;;;;;;2.70;1.30;;;9.90;99.90;;;;;;5064193;28;20444;-59
2022/12/31 05:16:43;;;;;;;1.63;1.53;;;9.90;99.90;;;;;;5066499;28;20182;-59
2022/12/31 05:19:08;;;;;;;3.00;1.67;;;9.90;99.90;;;;;;5063197;28;20179;-60
2022/12/31 05:21:34;;;;;;;1.90;1.60;;;9.80;99.90;;;;;;5067082;28;20694;-59
2022/12/31 05:24:00;;;;;;;1.70;1.60;;;9.80;99.90;;;;;;5061233;28;20179;-61
2022/12/31 05:26:25;;;;;;;2.17;1.60;;;9.70;99.90;;;;;;5057978;28;20217;-59
2022/12/31 05:28:51;;;;;;;1.70;1.60;;;9.60;99.90;;;;;;5073460;28;20198;-59
2022/12/31 05:31:17;;;;;;;1.60;1.50;;;9.60;99.90;;;;;;5059630;28;20197;-59
2022/12/31 05:33:42;;;;;;;1.50;1.40;;;9.60;99.90;;;;;;5062038;28;20171;-59
2022/12/31 05:36:08;;;;;;;3.87;2.20;;;9.60;99.90;;;;;;5060372;28;20587;-59
2022/12/31 05:38:34;;;;;;;1.93;1.83;;;9.60;99.90;;;;;;5065775;28;20201;-59
2022/12/31 05:41:01;;;;;;;1.83;1.73;;;9.50;99.90;;;;;;5060592;28;20735;-58
2022/12/31 05:43:27;;;;;;;1.60;1.50;;;9.50;99.90;;;;;;5062715;28;20277;-59
2022/12/31 05:45:52;;;;;;;1.80;1.70;;;9.50;99.90;;;;;;5066147;28;20479;-60
2022/12/31 05:48:18;;;;;;;3.80;1.80;;;9.50;99.90;;;;;;5060058;28;20172;-59
2022/12/31 05:50:43;;;;;;;2.67;1.80;;;9.50;99.90;;;;;;5056670;28;20555;-59
2022/12/31 05:53:09;;;;;;;4.93;2.10;;;9.50;99.90;;;;;;5054560;28;20215;-59
2022/12/31 05:55:34;;;;;;;3.03;1.87;;;9.50;99.90;;;;;;5055100;28;20604;-59
2022/12/31 05:58:00;;;;;;;7.40;2.10;;;9.50;99.90;;;;;;5058730;28;20166;-59
2022/12/31 06:00:26;;;;;;;2.00;1.90;;;9.50;99.90;;;;;;5067241;28;20179;-59
2022/12/31 06:02:51;;;;;;;2.13;1.90;;;9.50;99.90;;;;;;5059100;28;20202;-59
2022/12/31 06:05:17;;;;;;;2.37;2.17;;;9.50;99.90;;;;;;5057224;28;20655;-58
2022/12/31 06:07:42;;;;;;;7.07;2.57;;;9.50;99.90;;;;;;5064395;28;20206;-59
2022/12/31 06:10:08;;;;;;;2.60;2.40;;;9.50;99.90;;;;;;5059113;28;20739;-59
2022/12/31 06:12:34;;;;;;;5.17;2.93;;;9.40;99.90;;;;;;5065779;28;20217;-59
2022/12/31 06:15:00;;;;;;;5.80;4.40;;;9.40;99.90;;;;;;5078499;28;20485;-59
2022/12/31 06:17:25;;;;;;;6.03;5.43;;;9.40;99.90;;;;;;5068146;28;20186;-59
2022/12/31 06:19:51;;;;;;;7.30;5.73;;;9.40;99.90;;;;;;5069584;28;20610;-59
2022/12/31 06:22:17;;;;;;;3.60;3.30;;;9.40;99.90;;;;;;5059579;28;20209;-58
2022/12/31 06:24:42;;;;;;;2.60;2.40;;;9.40;99.90;;;;;;5057416;28;20210;-58
2022/12/31 06:27:08;;;;;;;2.23;2.13;;;9.40;99.90;;;;;;5075227;28;20256;-59
2022/12/31 06:29:34;;;;;;;2.50;2.30;;;9.40;99.90;;;;;;5072275;28;20182;-59
2022/12/31 06:31:59;;;;;;;2.93;2.00;;;9.40;99.90;;;;;;5060799;28;20198;-59
2022/12/31 06:34:25;;;;;;;5.80;2.37;;;9.40;99.90;;;;;;5056983;28;20178;-59
2022/12/31 06:36:50;;;;;;;6.43;3.53;;;9.40;99.90;;;;;;5066764;28;20740;-58
2022/12/31 06:39:16;;;;;;;5.57;3.40;;;9.40;99.90;;;;;;5065427;28;20269;-59
2022/12/31 06:41:41;;;;;;;3.50;3.17;;;9.30;99.90;;;;;;5064583;28;20206;-59
2022/12/31 06:44:07;;;;;;;8.07;4.33;;;9.20;99.90;;;;;;5054945;28;20182;-60
2022/12/31 06:46:33;;;;;;;5.20;3.67;;;9.20;99.90;;;;;;5064427;28;20224;-59
2022/12/31 06:48:58;;;;;;;3.47;3.17;;;9.10;99.90;;;;;;5063920;28;20174;-59
2022/12/31 06:51:24;;;;;;;7.93;3.53;;;9.10;99.90;;;;;;5061574;28;20198;-59
2022/12/31 06:53:50;;;;;;;3.57;2.90;;;9.00;99.90;;;;;;5053196;28;20198;-58
2022/12/31 06:56:21;;;;;;;6.53;3.93;;;8.90;99.90;;;;;;5054236;28;20454;-58
2022/12/31 06:58:47;;;;;;;7.00;4.30;;;8.90;99.90;;;;;;5060525;28;20428;-60
2022/12/31 07:01:47;;;;;;;4.73;4.03;;;8.90;99.90;;;;;;5060374;28;21083;-59
2022/12/31 07:04:31;;;;;;;3.97;3.47;;;8.90;99.90;;;;;;5055797;28;20428;-58
2022/12/31 07:06:56;;;;;;;4.80;3.00;;;8.90;99.90;;;;;;5060905;28;20968;-60
2022/12/31 07:09:47;;;;;;;3.63;2.60;;;8.90;99.90;;;;;;5066369;28;20511;-59
2022/12/31 07:12:31;;;;;;;3.90;3.43;;;8.90;99.90;;;;;;5060077;28;20210;-58
2022/12/31 07:15:21;;;;;;;4.03;3.53;;;8.90;99.90;;;;;;5064549;28;21094;-61
2022/12/31 07:18:12;;;;;;;4.40;3.70;;;8.80;99.90;;;;;;5065864;28;20447;-58
2022/12/31 07:20:38;;;;;;;3.40;3.10;;;8.80;99.90;;;;;;5061101;28;21142;-58
2022/12/31 07:23:06;;;;;;;3.90;3.40;;;8.80;99.90;;;;;;5071540;28;20448;-59
2022/12/31 07:25:34;;;;;;;7.33;3.93;;;8.80;99.90;;;;;;5057889;28;20179;-60
2022/12/31 07:28:08;;;;;;;5.20;3.90;;;8.80;99.90;;;;;;5066469;28;20439;-58
2022/12/31 07:31:12;;;;;;;4.70;3.50;;;8.80;99.90;;;;;;5067256;28;20440;-58
2022/12/31 07:33:40;;;;;;;5.33;3.57;;;8.80;99.90;;;;;;5046700;28;20436;-58
2022/12/31 07:36:26;;;;;;;4.10;2.97;;;8.80;99.90;;;;;;5064493;28;21014;-58
2022/12/31 07:39:21;;;;;;;3.30;3.00;;;8.90;99.90;;;;;;5059908;28;20853;-59
2022/12/31 07:42:10;;;;;;;2.73;2.53;;;8.90;99.90;;;;;;5064644;28;20964;-60
2022/12/31 07:44:49;;;;;;;2.93;2.20;;;9.10;99.90;;;;;;5064675;28;20439;-59
2022/12/31 07:47:33;;;;;;;6.47;2.77;;;9.20;99.90;;;;;;5063071;28;20471;-58
2022/12/31 07:49:59;;;;;;;3.20;2.83;;;9.20;99.90;;;;;;5063126;28;20439;-60
2022/12/31 07:52:25;;;;;;;2.70;2.50;;;9.20;99.90;;;;;;5063636;28;20503;-60
2022/12/31 07:54:51;;;;;;;2.37;2.17;;;9.20;99.90;;;;;;5058242;28;20433;-59
2022/12/31 07:57:19;;;;;;;2.60;2.00;;;9.20;99.90;;;;;;5056192;28;20550;-59
2022/12/31 08:00:04;;;;;;;3.20;2.57;;;9.20;99.90;;;;;;5065748;28;20186;-59
2022/12/31 08:02:29;;;;;;;1.90;1.80;;;9.20;99.90;;;;;;5062092;28;20526;-61
2022/12/31 08:05:05;;;;;;;3.00;2.47;;;9.20;99.90;;;;;;5061355;28;20944;-60
2022/12/31 08:07:33;;;;;;;5.00;2.17;;;9.30;99.90;;;;;;5059957;28;20197;-60
2022/12/31 08:10:33;;;;;;;3.33;2.50;;;9.30;99.90;;;;;;5067728;28;20474;-59
2022/12/31 08:13:03;;;;;;;3.17;2.30;;;9.30;99.90;;;;;;5047587;28;20467;-60
2022/12/31 08:15:29;;;;;;;2.40;2.13;;;9.30;99.90;;;;;;5062469;28;20438;-59
2022/12/31 08:17:55;;;;;;;4.13;1.87;;;9.30;99.90;;;;;;5061075;28;20445;-55
2022/12/31 08:20:20;;;;;;;3.70;2.40;;;9.30;99.90;;;;;;5050234;28;20432;-59
2022/12/31 08:22:54;;;;;;;4.07;2.13;;;9.30;99.90;;;;;;5060400;28;20637;-61
2022/12/31 08:25:29;;;;;;;2.50;2.10;;;9.30;99.90;;;;;;5058069;28;20179;-59
2022/12/31 08:28:13;;;;;;;2.60;2.00;;;9.40;99.90;;;;;;5059760;28;21065;-60
2022/12/31 08:30:54;;;;;;;2.30;2.13;;;9.40;99.90;;;;;;5054216;28;21157;-59
2022/12/31 08:33:30;;;;;;;1.90;1.80;;;9.40;99.90;;;;;;5054779;28;20519;-60
2022/12/31 08:36:10;;;;;;;2.30;2.10;;;9.50;99.90;;;;;;5048452;28;20440;-60
2022/12/31 08:38:42;;;;;;;3.50;2.47;;;9.50;99.90;;;;;;5047600;28;20425;-60
2022/12/31 08:41:17;;;;;;;2.60;2.40;;;9.50;99.90;;;;;;5050053;28;20859;-61
2022/12/31 08:43:59;;;;;;;3.00;2.00;;;9.60;99.90;;;;;;5051852;28;20435;-60
2022/12/31 08:46:30;;;;;;;6.10;2.53;;;9.60;99.90;;;;;;5058319;28;21035;-59
2022/12/31 08:48:56;;;;;;;2.30;2.10;;;9.60;99.90;;;;;;5062486;28;20839;-59
2022/12/31 08:51:23;;;;;;;2.53;2.07;;;9.70;99.90;;;;;;5055503;28;20463;-59
2022/12/31 08:53:49;;;;;;;2.70;2.30;;;9.70;99.90;;;;;;5058230;28;20174;-62
2022/12/31 08:56:51;;;;;;;2.23;2.03;;;9.80;99.90;;;;;;5050979;28;20506;-59
2022/12/31 08:59:46;;;;;;;2.50;2.30;;;9.90;99.90;;;;;;5033704;28;20532;-62
2022/12/31 09:02:23;;;;;;;7.97;3.60;;;10.00;99.90;;;;;;5055560;28;20465;-59
2022/12/31 09:05:01;;;;;;;7.13;5.20;;;10.10;99.90;;;;;;5059557;28;20478;-59
2022/12/31 09:07:37;;;;;;;8.07;5.70;;;10.10;99.90;;;;;;5054597;28;20477;-60
2022/12/31 09:10:03;;;;;;;5.10;4.00;;;10.20;99.90;;;;;;5055427;28;20424;-62
2022/12/31 09:12:48;;;;;;;5.27;4.27;;;10.30;99.90;;;;;;5052788;28;21161;-61
2022/12/31 09:15:13;;;;;;;5.90;4.00;;;10.30;99.90;;;;;;5049662;28;20190;-60
2022/12/31 09:17:48;;;;;;;9.67;3.80;;;10.30;99.90;;;;;;5049141;28;20437;-63
2022/12/31 09:20:26;;;;;;;3.97;3.50;;;10.30;99.90;;;;;;5052105;28;20331;-61
2022/12/31 09:22:53;;;;;;;2.47;2.27;;;10.30;99.90;;;;;;5047509;28;20449;-59
2022/12/31 09:25:20;;;;;;;3.87;2.90;;;10.30;99.90;;;;;;5053919;28;20428;-60
2022/12/31 09:28:09;;;;;;;4.40;3.73;;;10.30;99.90;;;;;;5053695;28;20610;-60
2022/12/31 09:31:00;;;;;;;10.50;8.30;;;10.20;99.90;;;;;;5058448;28;20428;-60
2022/12/31 09:33:41;;;;;;;10.40;7.50;;;10.20;99.90;;;;;;5071657;28;20838;-63
2022/12/31 09:36:13;;;;;;;9.90;6.43;;;10.20;99.90;;;;;;5073027;28;20440;-61
2022/12/31 09:39:03;;;;;;;8.10;6.20;;;10.10;99.90;;;;;;5071260;28;20471;-60
2022/12/31 09:41:51;;;;;;;9.60;5.00;;;10.10;99.90;;;;;;5068585;28;20462;-60
2022/12/31 09:44:41;;;;;;;8.33;4.67;;;10.20;99.90;;;;;;5059426;28;20469;-60
2022/12/31 09:47:25;;;;;;;4.53;3.77;;;10.20;99.90;;;;;;5066062;28;20484;-59
2022/12/31 09:50:17;;;;;;;3.10;2.80;;;10.30;99.90;;;;;;5057037;28;20456;-59
2022/12/31 09:52:55;;;;;;;3.50;3.20;;;10.30;99.90;;;;;;5061641;28;20491;-59
2022/12/31 09:55:38;;;;;;;7.93;3.10;;;10.40;99.90;;;;;;5054452;28;20432;-59
2022/12/31 09:58:33;;;;;;;3.50;3.20;;;10.50;99.90;;;;;;5056398;28;22435;-59
2022/12/31 10:01:22;;;;;;;3.40;2.90;;;10.60;99.90;;;;;;5051226;28;21068;-59
2022/12/31 10:04:06;;;;;;;4.10;2.67;;;10.70;99.90;;;;;;5064786;28;20440;-60
2022/12/31 10:06:57;;;;;;;3.97;3.07;;;10.80;99.90;;;;;;5054351;28;20570;-61
2022/12/31 10:09:29;;;;;;;3.03;2.77;;;10.90;99.90;;;;;;5057868;28;20431;-59
2022/12/31 10:12:04;;;;;;;3.70;2.93;;;11.00;99.90;;;;;;5061732;28;21866;-60
2022/12/31 10:14:44;;;;;;;3.43;3.00;;;11.00;99.90;;;;;;5064288;28;20408;-60
2022/12/31 10:17:26;;;;;;;2.40;2.20;;;11.10;99.90;;;;;;5063043;28;20423;-59
2022/12/31 10:20:01;;;;;;;3.53;3.07;;;11.10;99.90;;;;;;5067158;28;20434;-60
2022/12/31 10:22:40;;;;;;;4.00;2.80;;;11.20;99.90;;;;;;5068919;28;20519;-59
2022/12/31 10:25:44;;;;;;;3.57;3.03;;;11.10;99.90;;;;;;5063012;28;20489;-59
2022/12/31 10:28:40;;;;;;;4.50;3.30;;;11.10;99.90;;;;;;5061369;28;20916;-59
2022/12/31 10:31:11;;;;;;;4.50;3.67;;;11.10;99.90;;;;;;5075863;28;20425;-59
2022/12/31 10:34:03;;;;;;;3.47;3.17;;;11.20;99.90;;;;;;5080835;28;20800;-59
2022/12/31 10:36:50;;;;;;;2.90;2.60;;;11.20;99.90;;;;;;5062511;28;20448;-59
2022/12/31 10:39:38;;;;;;;3.10;2.80;;;11.30;99.90;;;;;;5054132;28;20436;-58
2022/12/31 10:42:50;;;;;;;4.57;3.00;;;11.40;99.90;;;;;;5056338;28;20447;-59
2022/12/31 10:45:53;;;;;;;4.73;2.73;;;11.40;99.90;;;;;;5061488;28;20917;-58
2022/12/31 10:48:41;;;;;;;3.27;2.87;;;11.50;99.90;;;;;;5063026;28;20903;-61
2022/12/31 10:51:09;;;;;;;3.10;2.90;;;11.60;99.90;;;;;;5062723;28;22183;-59
2022/12/31 10:53:38;;;;;;;3.30;2.83;;;11.70;99.90;;;;;;5064544;28;20428;-59
2022/12/31 10:56:40;;;;;;;3.80;3.00;;;11.80;99.90;;;;;;5060884;28;20872;-61
2022/12/31 10:59:34;;;;;;;2.87;2.23;;;11.80;99.90;;;;;;5073230;28;20503;-59
2022/12/31 11:02:38;;;;;;;2.80;2.60;;;11.90;99.90;;;;;;5074757;28;20968;-59
2022/12/31 11:05:40;;;;;;;3.03;2.73;;;12.00;99.90;;;;;;5010817;28;20863;-59
2022/12/31 11:08:43;;;;;;;3.10;2.50;;;12.10;99.90;;;;;;5063670;28;20491;-59
2022/12/31 11:11:27;;;;;;;2.93;2.63;;;12.20;99.90;;;;;;5059802;28;20509;-59
2022/12/31 11:14:14;;;;;;;4.40;2.90;;;12.30;99.90;;;;;;5061563;28;20428;-59
2022/12/31 11:17:15;;;;;;;3.00;2.70;;;12.30;99.90;;;;;;5077751;28;20423;-59
2022/12/31 11:20:02;;;;;;;2.80;2.60;;;12.40;99.90;;;;;;5059363;28;20444;-59
2022/12/31 11:22:52;;;;;;;3.07;2.77;;;12.50;99.90;;;;;;5064155;28;20542;-58
2022/12/31 11:25:34;;;;;;;3.40;2.37;;;12.50;99.90;;;;;;5077510;28;20431;-58
2022/12/31 11:28:21;;;;;;;4.60;3.10;;;12.60;99.90;;;;;;5076069;28;20471;-58
2022/12/31 11:31:21;;;;;;;3.40;2.80;;;12.60;99.90;;;;;;5058184;28;20987;-58
2022/12/31 11:34:02;;;;;;;16.03;3.20;;;12.70;99.90;;;;;;5079007;28;20521;-59
2022/12/31 11:36:40;;;;;;;3.10;2.80;;;12.80;99.90;;;;;;5061468;28;22027;-58
2022/12/31 11:39:08;;;;;;;4.43;3.13;;;12.80;99.90;;;;;;5053021;28;21019;-60
2022/12/31 11:41:45;;;;;;;3.03;2.73;;;12.90;99.90;;;;;;5063710;28;20479;-59
2022/12/31 11:44:43;;;;;;;2.50;2.30;;;12.90;99.90;;;;;;5058555;28;20424;-59
2022/12/31 11:47:27;;;;;;;2.93;2.20;;;12.90;99.90;;;;;;5070582;28;20452;-60
2022/12/31 11:50:09;;;;;;;3.00;2.70;;;12.90;99.90;;;;;;5066154;28;20431;-59
2022/12/31 11:52:46;;;;;;;3.40;2.80;;;12.90;99.90;;;;;;5064106;28;20440;-59
2022/12/31 11:55:15;;;;;;;3.47;2.80;;;12.90;99.90;;;;;;5068870;28;20466;-59
2022/12/31 11:57:47;;;;;;;5.30;2.50;;;12.90;99.90;;;;;;5073276;28;20436;-59
2022/12/31 12:00:20;;;;;;;5.30;2.60;;;12.90;99.90;;;;;;5078413;28;20920;-59
2022/12/31 12:02:47;;;;;;;2.00;1.80;;;12.90;99.90;;;;;;5065573;28;20455;-59
2022/12/31 12:05:16;;;;;;;3.50;2.20;;;12.90;99.90;;;;;;5073154;28;20914;-59
2022/12/31 12:07:42;;;;;;;3.37;1.97;;;13.00;99.90;;;;;;5066832;28;20454;-59
2022/12/31 12:10:40;;;;;;;2.23;1.90;;;13.00;99.90;;;;;;5068526;28;20859;-59
2022/12/31 12:13:21;;;;;;;3.23;1.70;;;13.00;99.90;;;;;;5070256;28;20627;-59
2022/12/31 12:15:58;;;;;;;2.30;1.50;;;13.00;99.90;;;;;;5070691;28;20453;-59
2022/12/31 12:18:39;;;;;;;2.13;1.70;;;13.00;99.90;;;;;;5054019;28;20425;-59
2022/12/31 12:21:12;;;;;;;2.57;2.13;;;13.00;99.90;;;;;;5065765;28;20451;-61
2022/12/31 12:23:38;;;;;;;16.90;11.00;;;13.00;99.90;;;;;;5073264;28;20424;-59
2022/12/31 12:26:06;;;;;;;9.13;6.97;;;12.90;99.90;;;;;;5069246;28;20459;-59
2022/12/31 12:28:44;;;;;;;8.97;5.73;;;12.90;99.90;;;;;;5071893;28;21223;-59
2022/12/31 12:31:22;;;;;;;7.57;5.77;;;12.90;99.90;;;;;;5082808;28;20431;-59
2022/12/31 12:33:49;;;;;;;11.00;6.97;;;12.90;99.90;;;;;;5061846;28;20531;-59
2022/12/31 12:36:17;;;;;;;5.37;3.70;;;12.90;99.90;;;;;;5061099;28;20561;-59
2022/12/31 12:38:43;;;;;;;6.20;4.67;;;12.90;99.90;;;;;;5066420;28;20429;-59
2022/12/31 12:41:27;;;;;;;3.50;3.20;;;12.90;99.90;;;;;;5070331;28;20439;-59
2022/12/31 12:44:07;;;;;;;4.00;3.43;;;12.90;99.90;;;;;;5056617;28;20789;-61
2022/12/31 12:46:41;;;;;;;7.37;2.90;;;12.90;99.90;;;;;;5064990;28;20461;-59
2022/12/31 12:49:28;;;;;;;3.10;2.37;;;12.90;99.90;;;;;;5063756;28;20841;-60
2022/12/31 12:52:09;;;;;;;4.03;2.90;;;13.00;99.90;;;;;;5078467;28;20452;-59
2022/12/31 12:54:37;;;;;;;3.50;2.23;;;13.00;99.90;;;;;;5071471;28;20435;-59
2022/12/31 12:57:50;;;;;;;3.80;2.10;;;13.00;99.90;;;;;;5080182;28;20515;-59
2022/12/31 13:00:23;;;;;;;2.97;2.60;;;13.10;99.90;;;;;;4968109;28;20477;-59
2022/12/31 13:03:07;;;;;;;4.50;3.00;;;13.10;99.90;;;;;;5051435;28;20522;-59
2022/12/31 13:06:00;;;;;;;7.47;4.00;;;13.10;99.90;;;;;;5073311;28;20439;-60
2022/12/31 13:08:53;;;;;;;8.37;4.10;;;13.00;99.90;;;;;;5060810;28;20432;-60
2022/12/31 13:11:48;;;;;;;6.80;4.80;;;13.00;99.90;;;;;;5062775;28;20460;-62
2022/12/31 13:14:25;;;;;;;6.80;4.83;;;13.00;99.90;;;;;;5047441;28;20600;-55
2022/12/31 13:17:44;;;;;;;5.63;3.87;;;13.00;99.90;;;;;;5048013;28;20442;-61
2022/12/31 13:20:36;;;;;;;13.30;7.60;;;12.90;99.90;;;;;;5046540;28;21296;-61
2022/12/31 13:23:33;;;;;;;14.20;10.17;;;12.90;99.90;;;;;;5052844;28;20479;-59
2022/12/31 13:26:15;;;;;;;15.20;9.27;;;12.90;99.90;;;;;;5053192;28;20524;-61
2022/12/31 13:28:44;;;;;;;25.23;11.40;;;12.80;99.90;;;;;;5058490;28;20506;-61
2022/12/31 13:31:28;;;;;;;48.37;9.73;;;12.80;99.90;;;;;;5051819;28;20486;-58
2022/12/31 13:34:06;;;;;;;9.50;5.90;;;12.80;99.90;;;;;;5049079;28;20452;-61
2022/12/31 13:36:36;;;;;;;6.30;3.90;;;12.70;99.90;;;;;;5048653;28;20432;-59
2022/12/31 13:39:09;;;;;;;5.27;3.10;;;12.70;99.90;;;;;;5052347;28;20444;-62
2022/12/31 13:41:52;;;;;;;4.40;3.07;;;12.70;99.90;;;;;;5060669;28;20464;-61
2022/12/31 13:44:38;;;;;;;3.77;2.53;;;12.70;99.90;;;;;;5057431;28;20437;-60
2022/12/31 13:47:16;;;;;;;4.40;3.00;;;12.60;99.90;;;;;;5057211;28;20592;-53